Latest Weather Observations for Tocal

IDN60801

Issued at 6:35 pm EST Wednesday 20 August 2014 (issued every 30 minutes, with the page automatically refreshed every 10 minutes)

About weather observations | Map of weather stations | Latest weather observations for NSW | Other Formats
Station Details ID: 061250 Name: TOCAL AWS Lat: -32.63 Lon: 151.59 Height: 30.0 m
Data from the previous 72 hours. | See also: Recent months at Tocal
Date/Time
EST
Temp
°C
App
Temp
°C
Dew
Point
Rel
Hum
%
Delta-T
°C
Wind Press
QNH
hPa
Press
MSL
hPa
Rain
since 9 am
mm
Dir
 
Spd
km/h
Gust
km/h
Spd
kts
Gust
kts
20/06:30pm 12.8 11.6 9.5 80 1.7 S 6 9 3 5 - - 0.0
20/06:00pm 12.9 11.1 9.6 80 1.7 S 9 17 5 9 - - 0.0
20/05:30pm 12.9 11.1 9.4 79 1.8 S 9 15 5 8 - - 0.0
20/05:00pm 13.6 11.2 8.6 72 2.5 SSW 11 15 6 8 - - 0.0
20/04:30pm 13.8 11.3 8.4 70 2.7 S 11 24 6 13 - - 0.0
20/04:00pm 14.0 11.3 9.1 72 2.5 SSE 13 28 7 15 - - 0.0
20/03:30pm 14.8 11.5 8.0 64 3.4 S 15 26 8 14 - - 0.0
20/03:00pm 14.9 11.7 8.6 66 3.2 S 15 26 8 14 - - 0.0
20/02:30pm 15.6 12.7 8.1 61 3.8 S 13 22 7 12 - - 0.0
20/02:00pm 16.6 13.6 7.9 56 4.4 S 13 19 7 10 - - 0.0
20/01:30pm 17.1 14.2 8.1 55 4.6 S 13 19 7 10 - - 0.0
20/01:00pm 17.5 15.1 6.9 49 5.3 SE 9 17 5 9 - - 0.0
20/12:30pm 16.7 13.2 7.3 54 4.7 S 15 22 8 12 - - 0.0
20/12:00pm 16.5 13.2 6.3 51 5.0 S 13 20 7 11 - - 0.0
20/11:30am 16.0 13.1 6.6 53 4.6 SSW 11 15 6 8 - - 0.0
20/11:00am 15.4 11.4 6.6 55 4.3 SSW 17 28 9 15 - - 0.0
20/10:30am 14.7 11.5 6.9 59 3.8 WSW 13 19 7 10 - - 0.0
20/10:00am 14.8 11.7 7.1 60 3.8 WSW 13 20 7 11 - - 0.0
20/09:30am 13.7 10.5 6.7 62 3.4 WSW 13 19 7 10 - - 0.0
20/09:00am 13.4 10.5 6.3 62 3.4 W 11 19 6 10 - - 2.0
20/08:30am 13.2 9.7 5.5 59 3.6 W 13 19 7 10 - - 2.0
20/08:00am 12.0 8.5 5.3 63 3.1 WSW 13 19 7 10 - - 2.0
20/07:30am 11.6 8.1 5.3 65 2.9 WSW 13 19 7 10 - - 2.0
20/07:00am 11.1 8.3 5.2 67 2.7 WSW 9 13 5 7 - - 2.0
20/06:30am 11.3 8.0 4.4 62 3.1 W 11 19 6 10 - - 2.0
20/06:00am 11.3 7.7 5.2 66 2.8 W 13 17 7 9 - - 2.0
20/05:30am 11.8 8.6 5.0 63 3.1 W 11 17 6 9 - - 2.0
20/05:00am 11.7 8.6 5.7 66 2.8 W 11 17 6 9 - - 2.0
20/04:30am 11.8 8.3 5.3 64 3.0 W 13 20 7 11 - - 1.8
20/04:00am 11.9 9.5 5.4 64 3.0 W 7 11 4 6 - - 1.8
20/03:30am 12.0 9.4 6.0 66 2.8 W 9 17 5 9 - - 1.8
20/03:00am 11.8 9.4 6.8 71 2.4 W 9 13 5 7 - - 1.8
20/02:30am 11.5 9.6 7.6 77 1.9 WNW 7 13 4 7 - - 1.8
20/02:00am 12.0 9.2 7.0 71 2.4 W 11 15 6 8 - - 1.8
20/01:30am 12.4 9.5 6.5 67 2.8 W 11 19 6 10 - - 1.8
20/01:00am 12.3 9.4 6.6 68 2.7 WSW 11 17 6 9 - - 1.8
20/12:30am 12.4 9.5 6.5 67 2.8 WSW 11 15 6 8 - - 1.8
20/12:00am 12.6 9.8 6.8 68 2.8 W 11 17 6 9 - - 1.8
 
Date/Time
EST
Temp
°C
App
Temp
°C
Dew
Point
Rel
Hum
%
Delta-T
°C
Wind Press
QNH
hPa
Press
MSL
hPa
Rain
since 9 am
mm
Dir
 
Spd
km/h
Gust
km/h
Spd
kts
Gust
kts
19/11:30pm 13.0 9.0 6.8 66 3.0 WSW 17 28 9 15 - - 1.8
19/11:00pm 13.2 9.6 6.8 65 3.1 WSW 15 24 8 13 - - 1.8
19/10:30pm 13.3 9.7 6.9 65 3.1 WSW 15 24 8 13 - - 1.8
19/10:00pm 13.3 9.5 7.4 67 2.9 WSW 17 24 9 13 - - 1.8
19/09:30pm 13.5 9.4 7.8 68 2.8 SW 19 28 10 15 - - 1.8
19/09:00pm 13.6 10.0 8.2 70 2.7 SW 17 24 9 13 - - 1.8
19/08:30pm 13.7 10.8 8.3 70 2.7 WSW 13 22 7 12 - - 1.8
19/08:00pm 13.9 10.3 8.3 69 2.8 SW 17 24 9 13 - - 1.8
19/07:30pm 14.0 10.8 8.4 69 2.8 SW 15 26 8 14 - - 1.8
19/07:00pm 14.2 10.7 8.7 69 2.8 SW 17 26 9 14 - - 1.8
19/06:30pm 14.4 11.0 9.1 70 2.7 SW 17 28 9 15 - - 1.8
19/06:00pm 14.9 11.4 8.8 67 3.1 SW 17 28 9 15 - - 1.8
19/05:30pm 15.0 11.5 8.9 67 3.1 SW 17 30 9 16 - - 1.8
19/05:00pm 15.1 11.6 8.8 66 3.2 SW 17 28 9 15 - - 1.8
19/04:30pm 15.4 11.5 8.7 64 3.4 SSW 19 32 10 17 - - 1.8
19/04:00pm 15.7 12.0 9.5 66 3.2 SSW 19 35 10 19 - - 1.8
19/03:30pm 15.6 12.3 9.4 66 3.2 SSW 17 26 9 14 - - 1.8
19/03:00pm 15.6 10.6 9.4 66 3.2 SSW 26 37 14 20 - - 1.8
19/02:56pm 15.8 10.4 9.4 65 3.3 SSW 28 48 15 26 - - 1.8
19/02:52pm 15.8 10.4 9.4 65 3.3 SSW 28 48 15 26 - - 1.8
19/02:30pm 16.4 11.7 9.3 63 3.7 SSW 24 35 13 19 - - 1.8
19/02:00pm 16.3 12.8 10.2 67 3.2 SW 19 35 10 19 - - 1.8
19/01:30pm 16.6 11.9 9.1 61 3.9 SSW 24 41 13 22 - - 1.8
19/01:16pm 16.9 11.7 10.1 64 3.6 SSW 28 46 15 25 - - 1.8
19/01:12pm 16.9 11.7 10.1 64 3.6 SSW 28 46 15 25 - - 1.8
19/01:00pm 16.8 12.0 10.2 65 3.5 SSW 26 39 14 21 - - 1.8
19/12:30pm 16.5 11.9 11.1 70 2.9 SW 26 37 14 20 - - 1.8
19/12:18pm 15.6 9.1 10.5 71 2.7 SW 35 41 19 22 - - 1.8
19/12:00pm 15.6 13.7 11.9 78 2.0 SSW 13 26 7 14 - - 1.8
19/11:30am 15.6 12.8 11.5 76 2.2 SSW 17 28 9 15 - - 1.4
19/11:00am 14.6 10.7 12.2 85 1.3 SW 24 37 13 20 - - 1.4
19/10:30am 15.7 13.9 12.0 78 2.0 SSW 13 20 7 11 - - 1.2
19/10:00am 14.1 12.4 12.3 89 1.0 SW 13 26 7 14 - - 1.2
19/09:30am 13.2 11.5 12.3 94 0.5 SW 13 19 7 10 - - 1.2
19/09:00am 13.2 11.5 12.3 94 0.5 W 13 17 7 9 - - 15.6
19/08:30am 13.1 11.8 12.4 95 0.4 SW 11 15 6 8 - - 15.6
19/08:00am 12.5 10.2 11.9 96 0.3 WSW 15 22 8 12 - - 15.4
19/07:30am 12.2 9.5 11.6 96 0.3 W 17 22 9 12 - - 15.0
19/07:00am 12.1 9.7 11.5 96 0.3 W 15 24 8 13 - - 14.6
19/06:30am 12.0 10.0 11.4 96 0.3 WSW 13 22 7 12 - - 13.2
19/06:00am 12.2 9.4 11.2 94 0.5 W 17 30 9 16 - - 11.8
19/05:30am 12.0 9.2 11.2 95 0.4 W 17 28 9 15 - - 11.4
19/05:00am 11.9 9.4 11.1 95 0.4 W 15 24 8 13 - - 9.8
19/04:30am 11.8 8.6 11.2 96 0.3 W 19 28 10 15 - - 8.2
19/04:00am 11.7 9.2 11.1 96 0.3 W 15 24 8 13 - - 7.0
19/03:30am 11.9 9.4 11.1 95 0.4 W 15 20 8 11 - - 4.4
19/03:00am 12.4 9.4 10.7 89 0.9 W 17 28 9 15 - - 2.6
19/02:30am 12.5 9.5 10.8 89 0.9 W 17 30 9 16 - - 2.4
19/02:00am 12.7 9.6 10.4 86 1.2 W 17 26 9 14 - - 2.4
19/01:30am 12.5 9.4 10.4 87 1.1 W 17 26 9 14 - - 2.4
19/01:00am 12.7 9.2 10.2 85 1.3 W 19 30 10 16 - - 2.4
19/12:30am 12.8 9.6 10.1 84 1.4 W 17 28 9 15 - - 2.4
19/12:00am 13.0 9.3 10.1 82 1.5 W 20 30 11 16 - - 2.4
 
Date/Time
EST
Temp
°C
App
Temp
°C
Dew
Point
Rel
Hum
%
Delta-T
°C
Wind Press
QNH
hPa
Press
MSL
hPa
Rain
since 9 am
mm
Dir
 
Spd
km/h
Gust
km/h
Spd
kts
Gust
kts
18/11:30pm 13.0 9.4 10.5 85 1.3 W 20 35 11 19 - - 2.4
18/11:00pm 12.8 8.5 10.7 87 1.1 W 24 37 13 20 - - 2.2
18/10:30pm 14.0 9.4 9.5 74 2.3 WSW 24 39 13 21 - - 2.2
18/10:00pm 14.8 8.8 8.7 67 3.1 W 30 43 16 23 - - 2.2
18/09:30pm 15.1 9.4 8.4 64 3.4 WSW 28 44 15 24 - - 2.2
18/09:00pm 15.2 10.3 8.3 63 3.5 W 24 48 13 26 - - 2.2
18/08:58pm 15.4 9.6 7.8 60 3.8 W 28 48 15 26 - - 2.2
18/08:30pm 15.2 10.6 8.0 62 3.6 W 22 35 12 19 - - 2.2
18/08:00pm 14.9 9.6 8.4 65 3.3 W 26 41 14 22 - - 2.2
18/07:30pm 14.9 11.0 8.6 66 3.2 W 19 30 10 16 - - 2.2
18/07:00pm 14.9 11.5 9.0 68 3.0 W 17 32 9 17 - - 2.2
18/06:30pm 14.6 10.9 9.3 70 2.7 W 19 26 10 14 - - 2.2
18/06:00pm 14.6 11.8 10.0 74 2.4 W 15 39 8 21 - - 2.2
18/05:30pm 14.5 10.4 10.1 75 2.3 WSW 22 33 12 18 - - 2.2
18/05:00pm 14.4 11.1 10.8 79 1.9 W 19 32 10 17 - - 2.2
18/04:30pm 14.5 11.3 11.1 80 1.8 WSW 19 32 10 17 - - 2.2
18/04:00pm 14.3 11.5 11.5 83 1.5 WSW 17 24 9 13 - - 2.2
18/03:30pm 13.9 11.9 12.6 92 0.7 W 15 26 8 14 - - 2.2
18/03:00pm 13.4 11.4 12.7 95 0.4 W 15 19 8 10 - - 2.2
18/02:30pm 13.4 11.7 12.3 93 0.6 W 13 20 7 11 - - 0.6
18/02:00pm 14.6 11.6 10.8 78 2.0 W 17 24 9 13 - - 0.0
18/01:30pm 13.8 11.6 10.8 82 1.6 WNW 13 19 7 10 - - 0.0
18/01:00pm 13.7 10.6 10.4 80 1.7 WNW 17 30 9 16 - - 0.0
18/12:30pm 13.5 8.1 9.4 76 2.1 W 28 41 15 22 - - 0.0
18/12:00pm 14.8 11.2 8.5 66 3.2 NW 17 30 9 16 - - 0.0
18/11:30am 15.4 10.9 8.5 63 3.5 WNW 22 33 12 18 - - 0.0
18/11:00am 15.9 10.5 8.0 59 4.0 NW 26 41 14 22 - - 0.0
18/10:30am 14.8 10.2 8.2 64 3.3 NW 22 37 12 20 - - 0.0
18/10:00am 14.1 10.1 8.3 68 2.9 WNW 19 32 10 17 - - 0.0
18/09:30am 13.1 8.6 8.5 73 2.3 NW 22 32 12 17 - - 0.0
18/09:00am 13.0 8.7 7.7 70 2.6 NW 20 37 11 20 - - 0.0
18/08:30am 12.7 8.0 7.6 71 2.5 NW 22 35 12 19 - - 0.0
18/08:00am 12.2 8.4 7.7 74 2.2 NW 17 30 9 16 - - 0.0
18/07:30am 11.9 7.7 7.6 75 2.1 NW 19 33 10 18 - - 0.0
18/07:00am 12.2 7.3 6.8 69 2.6 NW 22 32 12 17 - - 0.0
18/06:30am 12.0 7.4 6.5 69 2.6 NW 20 37 11 20 - - 0.0
18/06:00am 11.7 7.0 6.2 69 2.6 NW 20 33 11 18 - - 0.0
18/05:30am 11.4 6.7 6.1 70 2.5 NW 20 32 11 17 - - 0.0
18/05:00am 11.2 6.0 5.6 68 2.6 NW 22 30 12 16 - - 0.0
18/04:30am 11.2 6.1 5.8 69 2.5 NW 22 35 12 19 - - 0.0
18/04:00am 11.3 6.5 5.7 68 2.6 NW 20 30 11 16 - - 0.0
18/03:30am 9.8 7.1 5.6 75 1.9 W 9 15 5 8 - - 0.0
18/03:00am 10.7 8.0 5.5 70 2.4 NNW 9 13 5 7 - - 0.0
18/02:30am 11.3 7.8 5.4 67 2.7 NW 13 17 7 9 - - 0.0
18/02:00am 11.0 7.0 5.1 67 2.7 NNW 15 19 8 10 - - 0.0
18/01:30am 12.1 7.7 4.9 61 3.3 NW 17 26 9 14 - - 0.0
18/01:00am 12.0 8.0 4.8 61 3.3 NW 15 20 8 11 - - 0.0
18/12:30am 12.3 7.9 4.9 60 3.4 NNW 17 28 9 15 - - 0.0
18/12:00am 12.4 7.7 5.3 62 3.3 NW 19 26 10 14 - - 0.0
 
Date/Time
EST
Temp
°C
App
Temp
°C
Dew
Point
Rel
Hum
%
Delta-T
°C
Wind Press
QNH
hPa
Press
MSL
hPa
Rain
since 9 am
mm
Dir
 
Spd
km/h
Gust
km/h
Spd
kts
Gust
kts
17/11:30pm 12.7 8.0 5.1 60 3.5 NW 19 30 10 16 - - 0.0
17/11:00pm 12.5 7.8 5.2 61 3.4 NW 19 30 10 16 - - 0.0
17/10:30pm 12.3 8.7 5.2 62 3.3 W 13 20 7 11 - - 0.0
17/10:00pm 12.4 8.8 4.8 60 3.5 W 13 22 7 12 - - 0.0
17/09:30pm 12.9 8.8 4.4 56 3.9 W 15 28 8 15 - - 0.0
17/09:00pm 13.9 10.1 3.8 50 4.6 WNW 13 19 7 10 - - 0.0
17/08:30pm 13.9 9.3 3.8 50 4.6 NW 17 28 9 15 - - 0.0
17/08:00pm 14.5 10.2 3.5 47 5.0 NW 15 26 8 14 - - 0.0
17/07:30pm 14.8 10.9 3.3 46 5.2 WNW 13 20 7 11 - - 0.0
17/07:00pm 15.5 10.7 2.6 42 5.8 WNW 17 30 9 16 - - 0.0

Other Formats:

Comma delimited format used in spreadsheet applications
http://www.bom.gov.au/fwo/IDN60801/IDN60801.94775.axf

JavaScript Object Notation format (JSON) in row-major order
http://www.bom.gov.au/fwo/IDN60801/IDN60801.94775.json